Terminal Aerodrome Forecast
Issued by NWS Newport/Morehead City, NC

Home | Current Version | Previous Version | Text Only | Print | Product List | Glossary Off
Versions: 1 2 3 4 5 6 7 8 9 10 11 12 13 14 15 16 17 18

000
FTUS42 KMHX 200500
TAFEWN
TAF
KEWN 200540Z 2006/2106 34002KT P6SM SCT040
     FM200800 01002KT 4SM BR SCT007
     FM201300 02005KT P6SM SCT040
     FM201900 VRB05KT P6SM VCTS BKN040CB
     FM210000 VRB02KT P6SM SCT200=

USA.gov is the U.S. government's official web portal to all federal, state and local government web resources and services.